Time;durP1;ratioP1;P1;durP2;ratioP2;P2;SDS_P1;SDS_P2;PMS_P1;PMS_P2;Temp;Humidity;BMP_temperature;BMP_pressure;BME280_temperature;BME280_humidity;BME280_pressure;Samples;Min_cycle;Max_cycle;Signal;HPM_P1;HPM_P2
2022/09/29 00:02:27;;;;;;;8.00;5.78;;;;;;;9.97;89.89;99418.89;1753178;80;21150;-63
2022/09/29 00:04:57;;;;;;;8.20;5.70;;;;;;;9.96;89.83;99414.47;1774378;81;21181;-63
2022/09/29 00:07:28;;;;;;;7.58;5.00;;;;;;;9.94;89.64;99417.95;1774422;81;21131;-64
2022/09/29 00:09:57;;;;;;;9.18;5.20;;;;;;;9.91;89.60;99412.92;1778071;80;21119;-63
2022/09/29 00:12:28;;;;;;;7.10;5.22;;;;;;;9.93;89.53;99413.02;1774697;79;21123;-64
2022/09/29 00:14:57;;;;;;;6.85;5.10;;;;;;;9.93;89.43;99421.75;1774377;81;21155;-62
2022/09/29 00:17:28;;;;;;;8.18;5.35;;;;;;;9.91;89.44;99423.33;1780165;79;21115;-62
2022/09/29 00:20:00;;;;;;;9.03;5.10;;;;;;;9.92;89.44;99426.91;1774271;81;21178;-63
2022/09/29 00:22:30;;;;;;;8.28;5.58;;;;;;;9.91;89.43;99423.86;1770674;80;21124;-61
2022/09/29 00:24:59;;;;;;;8.25;4.97;;;;;;;9.91;89.33;99426.59;1788253;80;21539;-63
2022/09/29 00:27:29;;;;;;;8.28;5.35;;;;;;;9.88;89.34;99433.34;1793557;80;21167;-63
2022/09/29 00:29:59;;;;;;;6.58;5.15;;;;;;;9.87;89.34;99437.14;1798668;80;21178;-62
2022/09/29 00:32:29;;;;;;;9.28;6.05;;;;;;;9.81;89.25;99438.84;1771244;80;21167;-64
2022/09/29 00:34:59;;;;;;;9.38;6.15;;;;;;;9.76;89.24;99438.66;1767513;81;21684;-62
2022/09/29 00:37:28;;;;;;;12.00;5.20;;;;;;;9.72;89.33;99436.53;1770021;80;21115;-63
2022/09/29 00:39:57;;;;;;;7.53;5.25;;;;;;;9.69;89.39;99436.44;1791556;80;21186;-63
2022/09/29 00:42:26;;;;;;;10.43;5.60;;;;;;;9.66;89.31;99446.44;1798993;80;21076;-63
2022/09/29 00:45:16;;;;;;;9.00;5.65;;;;;;;9.63;89.24;99452.34;1798745;80;21576;-62
2022/09/29 00:48:00;;;;;;;9.95;6.62;;;;;;;9.58;89.20;99449.41;1718495;83;22123;-62
2022/09/29 00:50:46;;;;;;;8.53;5.45;;;;;;;9.52;89.30;99442.91;1792428;80;21119;-63
2022/09/29 00:53:15;;;;;;;9.30;6.00;;;;;;;9.51;89.39;99445.85;1767290;81;21630;-63
2022/09/29 00:56:00;;;;;;;8.13;5.85;;;;;;;9.50;89.60;99446.91;1766934;81;21139;-62
2022/09/29 00:58:46;;;;;;;11.93;7.45;;;;;;;9.51;89.81;99459.52;1767178;81;21553;-63
2022/09/29 01:01:16;;;;;;;15.60;8.43;;;;;;;9.51;89.75;99456.79;1765162;80;21187;-64
2022/09/29 01:03:45;;;;;;;16.02;9.03;;;;;;;9.51;89.75;99466.36;1788103;80;21178;-63
2022/09/29 01:06:18;;;;;;;14.45;8.48;;;;;;;9.51;89.72;99465.83;1788242;80;21150;-64
2022/09/29 01:09:07;;;;;;;17.80;8.68;;;;;;;9.53;89.60;99471.09;1788400;80;21182;-63
2022/09/29 01:11:39;;;;;;;19.70;9.18;;;;;;;9.54;89.59;99480.97;1795682;80;21107;-65
2022/09/29 01:14:10;;;;;;;15.40;8.78;;;;;;;9.52;89.52;99481.71;1717204;83;21659;-63
2022/09/29 01:16:42;;;;;;;16.70;8.65;;;;;;;9.50;89.49;99479.19;1776478;80;21186;-63
2022/09/29 01:19:20;;;;;;;12.40;8.10;;;;;;;9.47;89.41;99480.98;1777552;80;21107;-63
2022/09/29 01:22:00;;;;;;;13.03;8.20;;;;;;;9.45;89.34;99482.25;1767426;80;21120;-64
2022/09/29 01:24:41;;;;;;;11.65;7.42;;;;;;;9.43;89.46;99485.20;1766636;81;21197;-62
2022/09/29 01:27:41;;;;;;;10.98;7.95;;;;;;;9.41;89.42;99481.84;1767715;81;21099;-64
2022/09/29 01:30:22;;;;;;;10.85;7.15;;;;;;;9.38;89.36;99475.95;1773562;80;21118;-63
2022/09/29 01:33:12;;;;;;;9.75;7.08;;;;;;;9.36;89.47;99487.62;1788108;80;21130;-63
2022/09/29 01:35:49;;;;;;;10.55;7.08;;;;;;;9.37;89.66;99492.05;1787968;80;21115;-63
2022/09/29 01:38:42;;;;;;;8.15;6.65;;;;;;;9.38;89.57;99489.63;1788265;80;21115;-64
2022/09/29 01:41:19;;;;;;;11.22;7.35;;;;;;;9.35;89.48;99490.05;1788041;79;21150;-63
2022/09/29 01:44:03;;;;;;;8.38;6.50;;;;;;;9.31;89.59;99499.20;1788414;80;21107;-63
2022/09/29 01:46:50;;;;;;;10.28;6.17;;;;;;;9.31;89.80;99499.20;1788086;79;21103;-63
2022/09/29 01:49:19;;;;;;;12.25;6.58;;;;;;;9.33;90.04;99503.93;1780288;80;21258;-63
2022/09/29 01:51:59;;;;;;;11.20;6.85;;;;;;;9.36;90.04;99510.34;1716156;83;21135;-63
2022/09/29 01:54:45;;;;;;;9.23;6.85;;;;;;;9.39;90.00;99514.55;1792375;80;21072;-62
2022/09/29 01:57:22;;;;;;;11.93;7.20;;;;;;;9.37;89.81;99516.13;1761839;81;21602;-63
2022/09/29 01:59:57;;;;;;;9.60;6.33;;;;;;;9.37;89.90;99512.02;1767336;81;21183;-62
2022/09/29 02:02:38;;;;;;;10.82;6.87;;;;;;;9.39;89.86;99515.91;1767480;81;21139;-64
2022/09/29 02:05:11;;;;;;;15.45;7.53;;;;;;;9.36;89.87;99514.97;1767526;81;21115;-63
2022/09/29 02:07:44;;;;;;;9.30;6.47;;;;;;;9.34;90.05;99512.97;1767620;80;21605;-63
2022/09/29 02:10:27;;;;;;;8.00;6.15;;;;;;;9.37;90.00;99520.22;1771290;80;21158;-64
2022/09/29 02:12:58;;;;;;;8.25;5.97;;;;;;;9.38;89.90;99519.70;1795377;80;21103;-62
2022/09/29 02:15:30;;;;;;;8.55;6.28;;;;;;;9.37;89.97;99518.02;1717573;83;21736;-63
2022/09/29 02:18:04;;;;;;;10.78;6.70;;;;;;;9.38;90.19;99523.80;1798334;80;21139;-64
2022/09/29 02:20:34;;;;;;;11.45;7.20;;;;;;;9.42;90.27;99527.27;1798727;80;21136;-63
2022/09/29 02:23:04;;;;;;;10.48;6.25;;;;;;;9.44;90.19;99524.31;1793719;80;21512;-62
2022/09/29 02:25:35;;;;;;;12.00;6.90;;;;;;;9.44;90.20;99531.16;1790398;80;21633;-63
2022/09/29 02:28:06;;;;;;;11.25;6.85;;;;;;;9.42;90.34;99521.80;1770897;80;21159;-62
2022/09/29 02:30:36;;;;;;;13.15;7.75;;;;;;;9.45;90.46;99523.27;1803454;79;21107;-64
2022/09/29 02:33:05;;;;;;;13.53;7.92;;;;;;;9.46;90.46;99528.52;1775078;79;21581;-63
2022/09/29 02:35:43;;;;;;;17.65;7.87;;;;;;;9.45;90.59;99521.37;1774370;81;21127;-63
2022/09/29 02:38:32;;;;;;;;;;;;;;;9.46;90.70;99524.95;1777025;81;21174;-63
2022/09/29 02:41:15;;;;;;;10.35;7.08;;;;;;;9.49;90.82;99528.09;1774429;81;20148;-63
2022/09/29 02:44:10;;;;;;;13.58;7.50;;;;;;;9.50;90.77;99531.14;1774854;81;21151;-63
2022/09/29 02:47:10;;;;;;;10.75;7.28;;;;;;;9.48;90.62;99528.31;1747988;81;21558;-63
2022/09/29 02:50:33;;;;;;;11.20;6.30;;;;;;;9.43;90.80;99529.47;1773615;79;21135;-63
2022/09/29 02:53:08;;;;;;;11.03;6.00;;;;;;;9.45;90.99;99530.09;1774727;80;21139;-64
2022/09/29 02:56:10;;;;;;;8.35;5.87;;;;;;;9.47;91.09;99526.63;1710389;84;21559;-63
2022/09/29 02:58:55;;;;;;;8.00;5.97;;;;;;;9.49;90.99;99532.72;1774388;81;21648;-64
2022/09/29 03:01:24;;;;;;;10.85;6.25;;;;;;;9.46;91.03;99525.78;1774394;81;21111;-63
2022/09/29 03:03:54;;;;;;;10.05;5.35;;;;;;;9.46;91.10;99526.31;1774539;79;21126;-63
2022/09/29 03:06:23;;;;;;;10.20;5.80;;;;;;;9.46;90.99;99526.31;1774769;81;21582;-63
2022/09/29 03:08:53;;;;;;;9.60;5.50;;;;;;;9.46;90.94;99535.36;1774304;81;21594;-63
2022/09/29 03:11:22;;;;;;;8.50;5.33;;;;;;;9.48;90.93;99534.62;1774513;80;21669;-63
2022/09/29 03:13:52;;;;;;;11.28;5.58;;;;;;;9.48;90.88;99529.67;1774455;81;21123;-63
2022/09/29 03:16:23;;;;;;;8.70;5.35;;;;;;;9.45;90.84;99531.47;1774880;79;21099;-63
2022/09/29 03:18:55;;;;;;;8.00;5.72;;;;;;;9.43;91.03;99539.04;1774614;80;21200;-64
2022/09/29 03:21:25;;;;;;;8.15;4.85;;;;;;;9.45;91.03;99536.94;1774500;80;21111;-63
2022/09/29 03:23:54;;;;;;;8.98;5.22;;;;;;;9.46;90.99;99531.25;1774348;81;21163;-63
2022/09/29 03:26:25;;;;;;;8.38;5.00;;;;;;;9.43;90.90;99529.47;1774600;81;21154;-62
2022/09/29 03:28:54;;;;;;;10.78;5.40;;;;;;;9.39;90.92;99533.68;1774995;79;21550;-64
2022/09/29 03:31:23;;;;;;;7.03;5.45;;;;;;;9.37;91.00;99534.42;1774267;81;21170;-64
2022/09/29 03:33:53;;;;;;;8.98;5.30;;;;;;;9.30;91.00;99540.41;1774646;80;21186;-63
2022/09/29 03:36:22;;;;;;;10.10;4.60;;;;;;;9.27;91.07;99542.20;1774403;81;21091;-63
2022/09/29 03:38:52;;;;;;;8.98;5.60;;;;;;;9.28;91.24;99546.62;1774375;81;21226;-63
2022/09/29 03:41:21;;;;;;;8.28;5.08;;;;;;;9.31;91.27;99555.23;1774494;79;21072;-63
2022/09/29 03:43:51;;;;;;;10.40;4.92;;;;;;;9.33;91.39;99553.13;1774817;79;21543;-63
2022/09/29 03:46:21;;;;;;;16.00;5.22;;;;;;;9.36;91.50;99560.91;1774735;81;21091;-63
2022/09/29 03:48:50;;;;;;;8.75;4.45;;;;;;;9.39;91.60;99555.02;1776394;81;21087;-63
2022/09/29 03:51:20;;;;;;;6.50;4.30;;;;;;;9.39;91.65;99553.66;1778949;79;21147;-63
2022/09/29 03:53:49;;;;;;;9.08;4.65;;;;;;;9.42;91.74;99555.97;1775355;80;21083;-64
2022/09/29 03:56:19;;;;;;;9.90;4.65;;;;;;;9.46;91.71;99552.29;1774348;81;21147;-63
2022/09/29 03:58:48;;;;;;;6.70;4.80;;;;;;;9.45;91.66;99559.65;1774308;81;21171;-64
2022/09/29 04:01:19;;;;;;;8.93;4.75;;;;;;;9.45;91.61;99564.28;1774388;79;21243;-63
2022/09/29 04:03:49;;;;;;;8.73;4.90;;;;;;;9.44;91.65;99577.11;1774363;81;21111;-63
2022/09/29 04:06:21;;;;;;;9.60;4.33;;;;;;;9.42;91.60;99581.94;1775173;79;21166;-63
2022/09/29 04:08:51;;;;;;;7.22;4.37;;;;;;;9.41;91.58;99582.16;1774208;80;21123;-63
2022/09/29 04:11:21;;;;;;;7.90;4.47;;;;;;;9.42;91.68;99585.20;1774396;81;21178;-63
2022/09/29 04:13:51;;;;;;;8.83;4.92;;;;;;;9.43;91.81;99591.83;1774255;80;21106;-63
2022/09/29 04:16:21;;;;;;;9.05;4.67;;;;;;;9.45;91.85;99582.89;1774990;79;21159;-64
2022/09/29 04:18:51;;;;;;;8.03;4.60;;;;;;;9.46;91.87;99590.05;1774333;81;21550;-62
2022/09/29 04:21:22;;;;;;;7.50;4.72;;;;;;;9.49;91.92;99588.78;1774358;81;21197;-65
2022/09/29 04:23:52;;;;;;;9.95;5.03;;;;;;;9.52;91.82;99591.09;1779595;80;21151;-65
2022/09/29 04:26:21;;;;;;;11.22;4.83;;;;;;;9.52;91.76;99593.83;1782589;80;21119;-63
2022/09/29 04:28:52;;;;;;;7.15;5.17;;;;;;;9.53;91.74;99600.45;1782646;80;21150;-63
2022/09/29 04:31:21;;;;;;;7.60;4.75;;;;;;;9.55;91.75;99597.51;1782952;80;21201;-63
2022/09/29 04:33:51;;;;;;;11.55;4.60;;;;;;;9.59;91.82;99587.83;1782443;80;21174;-64
2022/09/29 04:36:22;;;;;;;9.70;4.35;;;;;;;9.64;91.83;99591.30;1783351;79;21123;-64
2022/09/29 04:38:52;;;;;;;9.13;5.45;;;;;;;9.67;91.87;99589.51;1782481;80;21135;-63
2022/09/29 04:41:23;;;;;;;10.55;4.87;;;;;;;9.68;91.88;99600.23;1782547;80;21111;-62
2022/09/29 04:43:52;;;;;;;10.70;5.67;;;;;;;9.70;91.85;99604.13;1782439;79;21223;-65
2022/09/29 04:46:22;;;;;;;11.50;5.55;;;;;;;9.73;91.86;99605.07;1782574;80;21166;-63
2022/09/29 04:48:52;;;;;;;10.72;4.83;;;;;;;9.76;91.85;99600.05;1782553;80;21087;-65
2022/09/29 04:51:21;;;;;;;7.67;4.72;;;;;;;9.81;91.85;99593.94;1782477;80;21189;-63
2022/09/29 04:53:52;;;;;;;12.85;5.50;;;;;;;9.85;91.75;99590.56;1782448;80;21142;-65
2022/09/29 04:56:22;;;;;;;9.35;5.30;;;;;;;9.85;91.68;99589.20;1782715;80;21147;-64
2022/09/29 04:58:54;;;;;;;9.40;6.28;;;;;;;9.87;91.61;99575.30;1782368;80;21538;-63
2022/09/29 05:01:24;;;;;;;10.38;5.65;;;;;;;9.89;91.57;99580.56;1782665;80;21127;-65
2022/09/29 05:03:54;;;;;;;14.40;9.13;;;;;;;9.91;91.60;99571.09;1782564;80;21147;-64
2022/09/29 05:06:25;;;;;;;17.70;15.30;;;;;;;9.94;91.56;99573.39;1782630;80;21143;-64
2022/09/29 05:08:57;;;;;;;12.15;8.58;;;;;;;9.98;91.63;99577.91;1782570;80;21135;-64
2022/09/29 05:11:27;;;;;;;11.70;7.62;;;;;;;10.02;91.80;99584.11;1782494;80;21170;-63
2022/09/29 05:13:56;;;;;;;9.85;5.60;;;;;;;10.04;91.78;99581.16;1782469;80;21122;-63
2022/09/29 05:16:25;;;;;;;10.35;5.00;;;;;;;10.08;91.83;99587.36;1782573;80;21123;-64
2022/09/29 05:18:56;;;;;;;16.57;5.83;;;;;;;10.12;91.80;99591.34;1782471;80;21150;-63
2022/09/29 05:21:25;;;;;;;11.05;5.50;;;;;;;10.17;91.79;99588.81;1782512;80;21126;-64
2022/09/29 05:23:56;;;;;;;10.90;6.17;;;;;;;10.21;91.80;99597.46;1782286;80;21150;-63
2022/09/29 05:26:26;;;;;;;13.48;5.55;;;;;;;10.28;91.80;99601.55;1782577;80;21213;-65
2022/09/29 05:28:58;;;;;;;11.55;5.00;;;;;;;10.32;91.76;99599.53;1782581;80;21562;-64
2022/09/29 05:31:27;;;;;;;12.30;5.30;;;;;;;10.38;91.78;99606.88;1782667;80;21139;-65
2022/09/29 05:34:00;;;;;;;11.63;6.08;;;;;;;10.46;91.76;99602.56;1782534;80;21141;-64
2022/09/29 05:36:29;;;;;;;11.65;5.95;;;;;;;10.55;91.81;99614.65;1782787;80;21154;-64
2022/09/29 05:38:59;;;;;;;11.70;5.30;;;;;;;10.62;91.85;99614.09;1783034;80;21186;-64
2022/09/29 05:41:27;;;;;;;13.50;4.70;;;;;;;10.67;91.84;99619.23;1782637;80;21118;-63
2022/09/29 05:44:00;;;;;;;16.17;5.60;;;;;;;10.76;91.81;99621.19;1782684;80;21111;-63
2022/09/29 05:46:28;;;;;;;14.95;5.08;;;;;;;10.87;91.68;99618.30;1782610;80;21142;-62
2022/09/29 05:48:59;;;;;;;13.58;5.45;;;;;;;10.93;91.48;99614.67;1782537;80;21616;-66
2022/09/29 05:51:28;;;;;;;12.63;4.90;;;;;;;10.97;91.20;99615.39;1783034;80;21122;-67
2022/09/29 05:53:58;;;;;;;12.03;4.45;;;;;;;11.03;91.01;99613.14;1783096;80;21146;-64
2022/09/29 05:56:27;;;;;;;9.48;4.45;;;;;;;11.14;90.68;99613.53;1783174;79;21131;-65
2022/09/29 05:58:59;;;;;;;11.93;4.95;;;;;;;11.19;89.86;99610.44;1782567;80;21114;-64
2022/09/29 06:01:29;;;;;;;15.43;5.28;;;;;;;11.21;89.43;99612.95;1782568;80;21129;-64
2022/09/29 06:03:58;;;;;;;11.90;5.20;;;;;;;11.26;89.24;99615.88;1753197;79;21639;-65
2022/09/29 06:06:28;;;;;;;11.33;4.47;;;;;;;11.31;88.98;99625.65;1787057;79;21177;-63
2022/09/29 06:08:58;;;;;;;13.50;4.50;;;;;;;11.34;88.71;99614.23;1797654;79;21551;-64
2022/09/29 06:11:30;;;;;;;15.35;5.87;;;;;;;11.39;88.43;99622.64;1782604;80;21127;-64
2022/09/29 06:14:02;;;;;;;21.35;6.20;;;;;;;11.43;88.24;99619.76;1782666;80;21154;-63
2022/09/29 06:16:33;;;;;;;14.63;5.47;;;;;;;11.46;88.13;99623.95;1784554;79;21166;-63
2022/09/29 06:19:04;;;;;;;16.93;6.03;;;;;;;11.47;88.21;99625.64;1782610;80;21154;-64
2022/09/29 06:21:34;;;;;;;17.07;6.37;;;;;;;11.52;88.01;99629.39;1782807;80;21096;-63
2022/09/29 06:24:06;;;;;;;13.75;5.50;;;;;;;11.57;87.71;99627.35;1782476;80;21119;-62
2022/09/29 06:26:35;;;;;;;12.10;5.20;;;;;;;11.61;87.54;99629.42;1782466;80;21198;-65
2022/09/29 06:29:05;;;;;;;13.30;5.55;;;;;;;11.66;87.18;99627.38;1782718;80;21535;-64
2022/09/29 06:31:36;;;;;;;13.18;4.80;;;;;;;11.68;86.66;99633.48;1782582;80;21139;-64
2022/09/29 06:34:06;;;;;;;13.65;5.25;;;;;;;11.69;86.46;99633.27;1763473;80;21143;-64
2022/09/29 06:39:30;;;;;;;11.93;4.20;;;;;;;11.75;85.71;99647.50;1808939;79;21600;-64
2022/09/29 06:42:02;;;;;;;10.93;4.90;;;;;;;11.74;85.22;99644.98;1782635;80;22046;-64
2022/09/29 06:44:31;;;;;;;13.40;4.53;;;;;;;11.76;85.07;99646.96;1782544;80;21181;-65
2022/09/29 06:47:01;;;;;;;10.03;4.00;;;;;;;11.74;84.91;99649.93;1782574;80;21143;-63
2022/09/29 06:49:31;;;;;;;11.40;5.03;;;;;;;11.77;84.69;99650.55;1782506;80;21636;-64
2022/09/29 06:52:02;;;;;;;11.73;5.17;;;;;;;11.79;84.51;99651.20;1782863;80;21142;-65
2022/09/29 06:54:36;;;;;;;13.35;5.35;;;;;;;11.77;84.44;99640.94;1780005;80;21154;-64
2022/09/29 06:57:05;;;;;;;13.62;4.97;;;;;;;11.79;84.49;99656.69;1783162;79;21090;-64
2022/09/29 06:59:35;;;;;;;13.40;6.00;;;;;;;11.82;84.44;99650.22;1782514;80;21155;-63
2022/09/29 07:02:05;;;;;;;15.15;6.10;;;;;;;11.87;84.26;99659.15;1724313;82;21161;-62
2022/09/29 07:04:35;;;;;;;10.90;5.30;;;;;;;11.93;84.26;99663.21;1754172;82;21161;-64
2022/09/29 07:07:06;;;;;;;20.68;6.08;;;;;;;12.00;84.15;99661.78;1728737;81;21102;-64
2022/09/29 07:09:35;;;;;;;15.72;5.65;;;;;;;12.06;83.90;99654.85;1727180;83;21190;-64
2022/09/29 07:12:06;;;;;;;17.17;6.55;;;;;;;12.11;83.70;99663.78;1727308;83;21128;-63
2022/09/29 07:14:36;;;;;;;17.77;6.20;;;;;;;12.17;83.46;99662.04;1746959;82;21163;-65
2022/09/29 07:17:05;;;;;;;20.92;6.50;;;;;;;12.23;83.35;99662.51;1748423;82;21555;-64
2022/09/29 07:19:35;;;;;;;16.52;6.30;;;;;;;12.26;83.07;99669.77;1748440;82;21146;-64
2022/09/29 07:22:05;;;;;;;14.95;5.42;;;;;;;12.30;82.77;99660.00;1748630;82;21198;-63
2022/09/29 07:24:35;;;;;;;13.30;5.00;;;;;;;12.39;82.59;99666.06;1748346;81;21127;-63
2022/09/29 07:27:04;;;;;;;10.43;5.20;;;;;;;12.44;82.03;99670.34;1750855;82;21143;-64
2022/09/29 07:29:34;;;;;;;16.05;5.72;;;;;;;12.50;81.87;99657.61;1750951;80;21154;-64
2022/09/29 07:32:03;;;;;;;15.23;5.12;;;;;;;12.61;81.79;99666.45;1750947;82;21123;-64
2022/09/29 07:34:35;;;;;;;14.95;5.33;;;;;;;12.72;81.35;99669.81;1751055;81;21127;-66
2022/09/29 07:37:04;;;;;;;7.30;4.53;;;;;;;12.82;80.78;99665.99;1750867;82;21119;-63
2022/09/29 07:39:35;;;;;;;12.35;4.80;;;;;;;12.92;80.33;99661.33;1750893;82;21131;-63
2022/09/29 07:42:04;;;;;;;16.15;5.65;;;;;;;13.04;79.93;99664.16;1752687;80;21186;-66
2022/09/29 07:44:37;;;;;;;12.88;5.25;;;;;;;13.14;79.42;99654.83;1750561;80;21131;-64
2022/09/29 07:47:07;;;;;;;9.85;4.70;;;;;;;13.28;79.31;99654.97;1752149;80;21187;-66
2022/09/29 07:49:36;;;;;;;13.32;4.65;;;;;;;13.50;78.65;99649.23;1754532;80;21186;-65
2022/09/29 07:52:08;;;;;;;9.83;4.60;;;;;;;13.73;77.68;99651.78;1750687;81;21908;-64
2022/09/29 07:54:39;;;;;;;12.18;4.85;;;;;;;13.86;76.46;99650.18;1751514;81;21143;-65
2022/09/29 07:57:09;;;;;;;18.12;4.75;;;;;;;13.95;75.85;99656.48;1752906;80;21175;-64
2022/09/29 07:59:41;;;;;;;10.95;4.97;;;;;;;14.05;75.33;99654.50;1751986;82;21161;-64
2022/09/29 08:02:12;;;;;;;11.55;4.92;;;;;;;14.11;74.62;99654.93;1749572;82;21199;-63
2022/09/29 08:04:44;;;;;;;8.78;4.20;;;;;;;14.16;74.32;99661.09;1760528;80;21134;-65
2022/09/29 08:07:28;;;;;;;5.35;3.72;;;;;;;14.19;73.81;99675.23;1750732;82;21154;-66
2022/09/29 08:10:10;;;;;;;8.93;4.12;;;;;;;14.25;73.70;99670.69;1721170;83;21680;-64
2022/09/29 08:12:44;;;;;;;8.98;4.22;;;;;;;14.36;73.65;99665.74;1719992;82;21159;-64
2022/09/29 08:15:15;;;;;;;10.70;4.15;;;;;;;14.45;73.34;99669.00;1721025;83;21135;-65
2022/09/29 08:17:45;;;;;;;7.00;4.37;;;;;;;14.55;73.20;99668.69;1750742;81;22054;-65
2022/09/29 08:20:15;;;;;;;11.15;4.90;;;;;;;14.68;73.00;99665.37;1721279;83;21158;-64
2022/09/29 08:22:45;;;;;;;8.40;4.50;;;;;;;14.84;72.93;99665.45;1750606;82;21267;-65
2022/09/29 08:25:19;;;;;;;7.53;3.75;;;;;;;15.10;72.81;99672.91;1720839;83;21130;-66
2022/09/29 08:27:51;;;;;;;8.53;3.62;;;;;;;15.31;72.08;99659.81;1750653;82;21095;-66
2022/09/29 08:30:23;;;;;;;8.38;4.30;;;;;;;15.51;70.96;99661.58;1721030;83;21139;-66
2022/09/29 08:32:53;;;;;;;9.80;3.80;;;;;;;15.69;70.23;99651.45;1747993;82;21122;-67
2022/09/29 08:35:24;;;;;;;6.90;3.58;;;;;;;15.88;69.74;99650.13;1750488;82;21534;-65
2022/09/29 08:37:53;;;;;;;10.75;3.77;;;;;;;16.08;69.02;99651.00;1763830;81;21210;-64
2022/09/29 08:40:22;;;;;;;6.92;3.75;;;;;;;16.24;68.44;99654.84;1750809;82;21551;-66
2022/09/29 08:43:25;;;;;;;6.55;3.30;;;;;;;16.38;67.94;99650.66;1750929;82;21127;-65
2022/09/29 08:46:03;;;;;;;5.03;3.05;;;;;;;16.47;66.84;99644.44;1749309;82;21155;-68
2022/09/29 08:48:37;;;;;;;3.70;2.62;;;;;;;16.58;66.56;99655.64;1743986;82;21158;-65
2022/09/29 08:51:20;;;;;;;6.33;3.20;;;;;;;16.66;65.62;99656.63;1746835;81;21166;-65
2022/09/29 08:53:53;;;;;;;4.85;2.85;;;;;;;16.69;65.10;99663.86;1724231;83;21155;-66
2022/09/29 08:56:23;;;;;;;5.72;2.33;;;;;;;16.71;64.57;99653.92;1730248;82;21190;-65
2022/09/29 08:58:54;;;;;;;8.15;2.47;;;;;;;16.71;63.82;99651.99;1756969;81;21582;-65
2022/09/29 09:01:43;;;;;;;4.05;2.37;;;;;;;16.70;63.96;99641.19;1727622;82;21650;-64
2022/09/29 09:04:35;;;;;;;5.00;2.58;;;;;;;16.68;63.08;99647.52;1726862;83;21147;-64
2022/09/29 09:07:22;;;;;;;4.65;2.20;;;;;;;16.67;63.25;99638.94;1726931;83;21158;-68
2022/09/29 09:10:05;;;;;;;5.72;2.27;;;;;;;16.69;62.86;99641.73;1648441;87;21555;-69
2022/09/29 09:12:49;;;;;;;2.65;1.72;;;;;;;16.71;62.70;99634.56;1648365;87;21206;-67
2022/09/29 09:16:02;;;;;;;4.87;2.20;;;;;;;16.73;61.76;99635.14;1648363;87;21384;-68
2022/09/29 09:19:04;;;;;;;4.45;2.05;;;;;;;16.68;61.31;99630.38;1669313;86;21186;-69
2022/09/29 09:21:42;;;;;;;4.33;2.02;;;;;;;16.69;61.21;99627.91;1669100;86;21098;-69
2022/09/29 09:24:19;;;;;;;2.58;1.95;;;;;;;16.69;61.64;99629.83;1666187;86;21059;-69
2022/09/29 09:26:51;;;;;;;2.85;1.82;;;;;;;16.69;61.39;99626.52;1642440;87;21044;-70
2022/09/29 09:29:36;;;;;;;4.90;2.05;;;;;;;16.72;61.74;99634.30;1642153;87;21247;-69
2022/09/29 09:32:10;;;;;;;5.15;1.82;;;;;;;16.76;61.49;99636.01;1642284;87;21119;-71
2022/09/29 09:35:05;;;;;;;5.78;2.40;;;;;;;16.79;61.71;99637.72;1672797;84;21076;-70
2022/09/29 09:37:39;;;;;;;4.03;2.00;;;;;;;16.82;61.01;99632.76;1698561;83;21101;-69
2022/09/29 09:40:19;;;;;;;4.50;2.65;;;;;;;16.78;60.99;99627.74;1707503;83;21042;-70
2022/09/29 09:42:55;;;;;;;5.90;2.17;;;;;;;16.78;60.98;99629.67;1751646;81;21092;-68
2022/09/29 09:45:32;;;;;;;5.67;2.50;;;;;;;16.77;60.98;99623.85;1751462;82;22105;-68
2022/09/29 09:48:27;;;;;;;6.80;2.30;;;;;;;16.77;60.66;99628.00;1751640;82;21010;-67
2022/09/29 09:51:04;;;;;;;7.60;2.83;;;;;;;16.74;60.90;99625.20;1750539;81;20990;-68
2022/09/29 09:53:38;;;;;;;5.42;2.40;;;;;;;16.76;61.48;99627.70;1751441;80;21035;-69
2022/09/29 09:56:25;;;;;;;3.30;1.95;;;;;;;16.76;61.49;99627.16;1770215;79;21043;-67
2022/09/29 09:59:24;;;;;;;9.93;3.27;;;;;;;16.77;61.21;99629.38;1811220;79;21036;-68
2022/09/29 10:01:53;;;;;;;7.22;2.47;;;;;;;16.76;61.27;99635.46;1751531;82;21023;-69
2022/09/29 10:04:24;;;;;;;8.68;2.10;;;;;;;16.78;61.50;99631.89;1715517;82;21043;-70
2022/09/29 10:06:56;;;;;;;3.33;1.85;;;;;;;16.80;60.93;99629.70;1751404;82;21079;-69
2022/09/29 10:09:26;;;;;;;6.00;1.70;;;;;;;16.79;60.43;99628.58;1715222;83;21075;-70
2022/09/29 10:11:56;;;;;;;3.25;2.08;;;;;;;16.77;60.46;99626.06;1751389;82;21011;-70
2022/09/29 10:14:26;;;;;;;3.00;1.87;;;;;;;16.77;60.36;99630.22;1715578;82;21234;-72
2022/09/29 10:17:09;;;;;;;3.05;2.00;;;;;;;16.77;60.36;99632.15;1757134;81;21067;-70
2022/09/29 10:20:04;;;;;;;1.37;1.22;;;;;;;16.80;60.37;99631.64;1751422;82;21440;-67
2022/09/29 10:22:33;;;;;;;2.17;1.40;;;;;;;16.83;60.03;99637.20;1751551;82;21423;-69
2022/09/29 10:25:19;;;;;;;2.55;1.50;;;;;;;16.83;59.58;99639.42;1759296;80;21028;-69
2022/09/29 10:27:54;;;;;;;3.60;1.40;;;;;;;16.80;59.13;99635.23;1774064;81;21736;-68
2022/09/29 10:30:32;;;;;;;4.28;1.25;;;;;;;16.83;58.92;99634.44;1775052;79;20984;-68
2022/09/29 10:33:04;;;;;;;3.45;1.57;;;;;;;16.83;58.49;99639.42;1805803;79;21031;-66
2022/09/29 10:35:38;;;;;;;5.25;1.50;;;;;;;16.86;58.16;99629.77;1730070;82;21040;-66
2022/09/29 10:38:23;;;;;;;5.25;1.50;;;;;;;16.88;57.10;99628.41;1805918;79;21008;-67
2022/09/29 10:41:03;;;;;;;3.12;1.75;;;;;;;16.92;57.06;99634.30;1805710;79;21545;-66
2022/09/29 10:43:37;;;;;;;4.10;1.30;;;;;;;16.96;56.38;99635.45;1742062;82;21468;-66
2022/09/29 10:46:28;;;;;;;2.45;1.10;;;;;;;16.99;54.68;99635.78;1719020;83;21220;-67
2022/09/29 10:49:15;;;;;;;2.10;1.22;;;;;;;17.03;54.28;99638.86;1718531;83;21027;-65
2022/09/29 10:52:04;;;;;;;3.47;1.75;;;;;;;17.05;54.21;99639.45;1718746;83;21067;-66
2022/09/29 10:54:39;;;;;;;2.90;1.70;;;;;;;17.06;53.93;99632.81;1718188;83;21007;-68
2022/09/29 10:57:14;;;;;;;5.45;2.60;;;;;;;17.08;53.99;99627.85;1737596;81;21626;-67
2022/09/29 10:59:48;;;;;;;4.00;2.20;;;;;;;17.12;54.05;99633.16;1749212;82;21055;-67
2022/09/29 11:02:36;;;;;;;3.77;1.50;;;;;;;17.16;53.67;99621.02;1762568;81;21036;-68
2022/09/29 11:05:17;;;;;;;;;;;;;;;17.19;52.66;99613.03;1777418;79;21043;-67
2022/09/29 11:07:48;;;;;;;2.30;1.25;;;;;;;17.25;52.33;99614.75;1774108;81;20220;-68
2022/09/29 11:10:35;;;;;;;5.67;1.32;;;;;;;17.26;52.46;99612.83;1774544;81;21043;-66
2022/09/29 11:13:27;;;;;;;3.15;1.22;;;;;;;17.34;52.28;99618.73;1774182;81;21007;-67
2022/09/29 11:16:14;;;;;;;3.33;1.62;;;;;;;17.47;52.33;99615.25;1774289;81;20987;-65
2022/09/29 11:18:46;;;;;;;2.47;1.50;;;;;;;17.61;52.15;99611.82;1752773;81;21031;-66
2022/09/29 11:21:32;;;;;;;5.42;2.15;;;;;;;17.74;51.50;99609.19;1774160;81;21099;-66
2022/09/29 11:24:31;;;;;;;3.98;1.50;;;;;;;17.85;51.67;99607.34;1774262;81;21055;-65
2022/09/29 11:27:29;;;;;;;5.08;1.45;;;;;;;17.99;51.61;99609.40;1774715;80;21008;-69
2022/09/29 11:30:13;;;;;;;7.03;1.52;;;;;;;18.09;51.57;99618.34;1774440;81;21056;-68
2022/09/29 11:33:17;;;;;;;6.40;2.87;;;;;;;18.14;51.67;99608.67;1716960;82;21480;-67
2022/09/29 11:36:19;;;;;;;8.23;2.00;;;;;;;18.16;51.79;99613.95;1731411;80;21075;-69
2022/09/29 11:39:03;;;;;;;6.12;1.70;;;;;;;18.18;51.63;99615.35;1685824;85;21103;-69
2022/09/29 11:41:59;;;;;;;4.62;1.80;;;;;;;18.18;52.20;99613.97;1721352;83;21033;-69
2022/09/29 11:45:02;;;;;;;3.45;1.55;;;;;;;18.20;51.71;99627.56;1801171;80;20996;-70
2022/09/29 11:47:39;;;;;;;4.42;1.67;;;;;;;18.18;52.12;99624.22;1800985;80;21055;-67
2022/09/29 11:50:38;;;;;;;3.62;1.57;;;;;;;18.18;52.15;99614.52;1797591;79;22022;-69
2022/09/29 11:53:41;;;;;;;4.70;1.70;;;;;;;18.18;51.92;99610.36;1773906;81;21087;-69
2022/09/29 11:56:53;;;;;;;3.80;1.47;;;;;;;18.14;52.25;99613.37;1774325;81;21020;-70
2022/09/29 11:59:53;;;;;;;3.15;1.50;;;;;;;18.13;52.17;99615.87;1773917;80;21038;-67
2022/09/29 12:02:40;;;;;;;2.05;1.45;;;;;;;18.09;52.98;99618.89;1774224;79;21040;-70
2022/09/29 12:05:21;;;;;;;4.03;1.87;;;;;;;18.08;53.11;99625.53;1774293;80;21085;-70
2022/09/29 12:08:14;;;;;;;6.20;2.47;;;;;;;18.06;53.53;99625.25;1774346;80;21515;-69
2022/09/29 12:10:55;;;;;;;4.17;2.33;;;;;;;18.10;53.84;99634.42;1774875;79;21019;-69
2022/09/29 12:13:40;;;;;;;7.92;2.33;;;;;;;18.14;53.47;99626.69;1774363;81;21850;-71
2022/09/29 12:16:27;;;;;;;9.83;2.70;;;;;;;18.19;53.58;99628.66;1774179;80;21071;-69
2022/09/29 12:19:06;;;;;;;5.17;2.05;;;;;;;18.17;53.62;99621.16;1774304;81;21537;-68